Time;durP1;ratioP1;P1;durP2;ratioP2;P2;SDS_P1;SDS_P2;PMS_P1;PMS_P2;Temp;Humidity;BMP_temperature;BMP_pressure;BME280_temperature;BME280_humidity;BME280_pressure;Samples;Min_cycle;Max_cycle;Signal;HPM_P1;HPM_P2
2021/07/07 00:00:10;;;;;;;3.73;2.00;;;19.50;97.30;;;;;;4996526;28;20432;-86
2021/07/07 00:02:36;;;;;;;2.67;1.80;;;19.50;97.30;;;;;;4996223;28;20211;-87
2021/07/07 00:05:02;;;;;;;2.73;2.37;;;19.50;97.30;;;;;;4996648;28;20460;-86
2021/07/07 00:07:29;;;;;;;4.13;2.00;;;19.50;97.30;;;;;;4994992;28;20228;-86
2021/07/07 00:09:54;;;;;;;6.13;2.17;;;19.50;97.30;;;;;;4994555;28;20424;-86
2021/07/07 00:12:20;;;;;;;6.57;2.47;;;19.50;97.30;;;;;;4993479;28;20189;-86
2021/07/07 00:14:48;;;;;;;2.80;2.00;;;19.50;97.30;;;;;;4994596;28;20181;-87
2021/07/07 00:17:16;;;;;;;3.77;2.37;;;19.50;97.30;;;;;;4995972;28;20183;-86
2021/07/07 00:19:41;;;;;;;5.07;2.20;;;19.40;97.30;;;;;;4997016;28;20960;-86
2021/07/07 00:22:07;;;;;;;3.43;2.00;;;19.30;97.30;;;;;;4996747;28;20514;-86
2021/07/07 00:24:33;;;;;;;3.93;1.97;;;19.20;97.30;;;;;;5014096;28;20228;-86
2021/07/07 00:26:59;;;;;;;3.27;1.97;;;19.20;97.30;;;;;;4996669;28;20177;-86
2021/07/07 00:29:24;;;;;;;3.20;2.23;;;19.20;97.30;;;;;;4997884;28;20527;-86
2021/07/07 00:31:50;;;;;;;5.80;2.70;;;19.10;97.30;;;;;;4997390;28;20682;-85
2021/07/07 00:34:18;;;;;;;7.20;2.73;;;19.00;97.30;;;;;;4996372;28;20188;-86
2021/07/07 00:36:59;;;;;;;6.20;2.60;;;18.90;97.30;;;;;;4996389;28;20671;-86
2021/07/07 00:39:27;;;;;;;4.27;2.80;;;18.90;97.30;;;;;;4995222;28;20427;-87
2021/07/07 00:42:00;;;;;;;5.27;2.40;;;18.90;97.30;;;;;;4995795;28;20426;-86
2021/07/07 00:44:29;;;;;;;10.07;2.90;;;18.80;97.30;;;;;;5011822;28;20415;-87
2021/07/07 00:46:57;;;;;;;4.50;2.73;;;18.70;97.30;;;;;;4994786;28;20426;-86
2021/07/07 00:49:29;;;;;;;10.67;2.50;;;18.70;97.30;;;;;;4994819;28;20420;-86
2021/07/07 00:51:57;;;;;;;9.37;3.00;;;18.60;97.30;;;;;;4994748;28;20412;-87
2021/07/07 00:54:31;;;;;;;14.47;3.07;;;18.50;97.30;;;;;;4994877;28;20420;-86
2021/07/07 00:56:59;;;;;;;6.23;3.10;;;18.40;97.30;;;;;;4994759;28;20490;-87
2021/07/07 00:59:26;;;;;;;4.47;2.53;;;18.30;97.30;;;;;;4993989;28;20875;-86
2021/07/07 01:01:55;;;;;;;4.90;2.97;;;18.30;97.30;;;;;;4993549;28;20539;-86
2021/07/07 01:04:20;;;;;;;5.50;2.73;;;18.30;97.30;;;;;;4993998;28;20432;-87
2021/07/07 01:06:46;;;;;;;9.00;2.90;;;18.30;97.30;;;;;;5006858;28;20475;-86
2021/07/07 01:09:11;;;;;;;5.43;2.60;;;18.30;97.30;;;;;;5014282;28;20184;-86
2021/07/07 01:11:37;;;;;;;4.80;2.83;;;18.30;97.30;;;;;;5014440;28;20183;-86
2021/07/07 01:14:03;;;;;;;12.07;3.27;;;18.30;97.30;;;;;;5015599;28;20196;-86
2021/07/07 01:16:29;;;;;;;8.93;3.03;;;18.30;97.30;;;;;;5015630;28;20177;-86
2021/07/07 01:18:57;;;;;;;10.80;3.20;;;18.40;97.30;;;;;;5016864;28;20200;-87
2021/07/07 01:21:25;;;;;;;6.03;2.80;;;18.40;97.30;;;;;;5034808;28;20489;-86
2021/07/07 01:23:51;;;;;;;3.13;2.50;;;18.40;97.30;;;;;;5036690;28;20431;-87
2021/07/07 01:26:17;;;;;;;7.17;3.33;;;18.50;97.30;;;;;;5021112;28;20471;-86
2021/07/07 01:28:42;;;;;;;5.77;3.17;;;18.50;97.30;;;;;;5038777;28;20423;-86
2021/07/07 01:31:08;;;;;;;6.53;2.90;;;18.50;97.30;;;;;;5020614;28;20184;-87
2021/07/07 01:33:33;;;;;;;7.57;3.17;;;18.60;97.30;;;;;;5019143;28;20196;-86
2021/07/07 01:35:59;;;;;;;5.83;2.80;;;18.60;97.30;;;;;;5019079;28;20593;-87
2021/07/07 01:38:26;;;;;;;4.07;2.80;;;18.60;97.30;;;;;;5019243;28;20211;-87
2021/07/07 01:40:55;;;;;;;4.27;2.83;;;18.70;97.30;;;;;;5018914;28;20422;-87
2021/07/07 01:43:21;;;;;;;4.73;2.80;;;18.70;97.30;;;;;;5018937;28;20525;-86
2021/07/07 01:45:46;;;;;;;6.70;3.27;;;18.70;97.30;;;;;;5018985;28;20554;-87
2021/07/07 01:48:14;;;;;;;8.07;2.73;;;18.60;97.30;;;;;;5018648;28;20259;-87
2021/07/07 01:50:40;;;;;;;6.30;2.93;;;18.70;97.30;;;;;;5018853;28;20200;-87
2021/07/07 01:53:05;;;;;;;4.50;2.67;;;18.60;97.30;;;;;;5019190;28;21187;-86
2021/07/07 01:55:31;;;;;;;7.60;3.00;;;18.70;97.30;;;;;;5019173;28;20231;-87
2021/07/07 01:57:56;;;;;;;6.27;3.43;;;18.70;97.30;;;;;;5019287;28;20188;-87
2021/07/07 02:00:28;;;;;;;9.60;3.63;;;18.70;97.30;;;;;;5037106;28;20180;-87
2021/07/07 02:02:55;;;;;;;6.80;3.20;;;18.70;97.30;;;;;;5018985;28;20200;-87
2021/07/07 02:05:26;;;;;;;7.73;2.80;;;18.70;97.30;;;;;;5019587;28;20454;-86
2021/07/07 02:07:51;;;;;;;6.17;3.00;;;18.60;97.30;;;;;;5020077;28;20423;-86
2021/07/07 02:10:18;;;;;;;4.03;2.80;;;18.60;97.30;;;;;;5020431;28;20415;-87
2021/07/07 02:12:44;;;;;;;6.90;3.53;;;18.60;97.30;;;;;;5020143;28;20223;-87
2021/07/07 02:15:17;;;;;;;6.40;3.17;;;18.60;97.30;;;;;;5020605;28;20442;-87
2021/07/07 02:17:43;;;;;;;6.73;3.20;;;18.50;97.30;;;;;;5020286;28;20461;-86
2021/07/07 02:20:11;;;;;;;6.20;3.30;;;18.60;97.30;;;;;;5019377;28;20457;-86
2021/07/07 02:22:38;;;;;;;7.77;3.10;;;18.60;97.30;;;;;;5018868;28;20449;-86
2021/07/07 02:25:10;;;;;;;9.40;3.20;;;18.60;97.30;;;;;;5019280;28;20459;-86
2021/07/07 02:27:36;;;;;;;3.97;3.00;;;18.60;97.30;;;;;;5031547;28;20450;-86
2021/07/07 02:30:05;;;;;;;9.23;3.33;;;18.60;97.30;;;;;;5018366;28;20418;-87
2021/07/07 02:32:30;;;;;;;5.60;3.07;;;18.60;97.30;;;;;;5017809;28;20698;-86
2021/07/07 02:34:56;;;;;;;4.03;3.27;;;18.60;97.30;;;;;;5016947;28;20423;-86
2021/07/07 02:37:21;;;;;;;7.80;3.83;;;18.60;97.30;;;;;;5017778;28;20259;-86
2021/07/07 02:39:50;;;;;;;4.67;3.20;;;18.60;97.30;;;;;;5016861;28;20619;-87
2021/07/07 02:42:18;;;;;;;4.00;2.90;;;18.60;97.30;;;;;;5016754;28;20192;-87
2021/07/07 02:45:07;;;;;;;4.80;2.80;;;18.60;97.30;;;;;;5016447;28;20452;-86
2021/07/07 02:47:41;;;;;;;4.60;3.13;;;18.60;97.30;;;;;;5016191;28;20416;-86
2021/07/07 02:50:11;;;;;;;5.50;2.80;;;18.60;97.30;;;;;;5016222;28;20472;-86
2021/07/07 02:52:53;;;;;;;;;;;;;;;;;;;;;
2021/07/07 02:55:21;;;;;;;6.37;3.10;;;18.70;97.30;;;;;;5035999;28;20433;-87
2021/07/07 02:58:01;;;;;;;4.20;3.00;;;18.80;97.30;;;;;;5019607;28;20426;-86
2021/07/07 03:00:29;;;;;;;6.70;3.17;;;18.80;97.30;;;;;;5019433;28;20426;-86
2021/07/07 03:03:00;;;;;;;7.70;3.23;;;18.70;97.30;;;;;;5019003;28;20446;-87
2021/07/07 03:05:26;;;;;;;8.13;3.63;;;18.70;97.30;;;;;;5019220;28;20461;-87
2021/07/07 03:07:52;;;;;;;5.93;3.80;;;18.50;97.30;;;;;;5018604;28;20592;-86
2021/07/07 03:10:17;;;;;;;6.43;3.60;;;18.50;97.30;;;;;;5017578;28;20198;-87
2021/07/07 03:12:43;;;;;;;6.00;3.00;;;18.50;97.30;;;;;;5017320;28;20431;-86
2021/07/07 03:15:09;;;;;;;4.50;2.93;;;18.40;97.30;;;;;;5017069;28;20223;-86
2021/07/07 03:17:34;;;;;;;6.53;3.93;;;18.50;97.30;;;;;;5016893;28;20191;-87
2021/07/07 03:20:00;;;;;;;7.80;4.07;;;18.50;97.30;;;;;;5017034;28;21065;-86
2021/07/07 03:22:28;;;;;;;16.50;4.37;;;18.50;97.30;;;;;;5034442;28;20207;-86
2021/07/07 03:24:54;;;;;;;11.00;3.30;;;18.50;97.30;;;;;;5016549;28;20701;-86
2021/07/07 03:27:19;;;;;;;7.70;3.70;;;18.40;97.30;;;;;;5016982;28;20434;-85
2021/07/07 03:29:45;;;;;;;5.63;3.10;;;18.50;97.30;;;;;;5017180;28;20518;-86
2021/07/07 03:32:10;;;;;;;7.47;3.43;;;18.50;97.30;;;;;;5017158;28;20196;-86
2021/07/07 03:34:36;;;;;;;11.13;4.90;;;18.60;97.30;;;;;;5017116;28;20195;-86
2021/07/07 03:37:04;;;;;;;8.17;3.43;;;18.60;97.30;;;;;;5017221;28;20207;-86
2021/07/07 03:39:29;;;;;;;6.57;3.43;;;18.60;97.30;;;;;;5016941;28;20266;-87
2021/07/07 03:41:55;;;;;;;5.40;3.57;;;18.60;97.30;;;;;;5018091;28;20494;-86
2021/07/07 03:44:20;;;;;;;4.40;2.53;;;18.60;97.30;;;;;;5018259;28;20635;-86
2021/07/07 03:46:48;;;;;;;6.30;2.73;;;18.60;97.30;;;;;;5036275;28;20203;-86
2021/07/07 03:49:14;;;;;;;13.67;3.57;;;18.70;97.30;;;;;;5018553;28;20176;-87
2021/07/07 03:51:39;;;;;;;5.20;2.83;;;18.80;97.30;;;;;;5018359;28;20438;-86
2021/07/07 03:54:07;;;;;;;8.20;3.10;;;18.70;97.30;;;;;;5018145;28;20201;-86
2021/07/07 03:56:35;;;;;;;5.27;2.93;;;18.70;97.30;;;;;;5035237;28;20219;-86
2021/07/07 03:59:00;;;;;;;10.80;3.77;;;18.60;97.30;;;;;;5016393;28;20429;-86
2021/07/07 04:01:29;;;;;;;6.93;3.07;;;18.60;97.30;;;;;;5033771;28;20423;-86
2021/07/07 04:04:00;;;;;;;5.83;3.73;;;18.60;97.30;;;;;;5015801;28;20617;-86
2021/07/07 04:06:29;;;;;;;5.33;3.37;;;18.70;97.30;;;;;;5006415;28;20480;-87
2021/07/07 04:09:00;;;;;;;7.13;3.00;;;18.60;97.30;;;;;;4995910;28;20412;-87
2021/07/07 04:11:28;;;;;;;5.27;2.93;;;18.60;97.30;;;;;;4995169;28;20499;-86
2021/07/07 04:14:22;;;;;;;6.33;3.10;;;18.60;97.30;;;;;;4994721;28;20454;-87
2021/07/07 04:16:49;;;;;;;10.00;4.17;;;18.50;97.30;;;;;;4988092;28;20440;-87
2021/07/07 04:19:18;;;;;;;8.23;3.73;;;18.40;97.30;;;;;;4995756;28;20784;-87
2021/07/07 04:21:44;;;;;;;8.93;3.60;;;18.40;97.30;;;;;;4996004;28;20416;-87
2021/07/07 04:24:10;;;;;;;5.00;3.67;;;18.40;97.30;;;;;;4996619;28;20850;-86
2021/07/07 04:26:35;;;;;;;10.53;3.57;;;18.40;97.30;;;;;;4997032;28;20232;-86
2021/07/07 04:29:01;;;;;;;8.00;3.37;;;18.40;97.30;;;;;;4996591;28;20423;-86
2021/07/07 04:31:28;;;;;;;7.40;3.90;;;18.40;97.30;;;;;;4997551;28;20174;-86
2021/07/07 04:33:53;;;;;;;9.60;4.00;;;18.40;97.30;;;;;;4997860;28;20672;-86
2021/07/07 04:36:18;;;;;;;7.63;4.03;;;18.40;97.30;;;;;;4998237;28;20506;-87
2021/07/07 04:38:44;;;;;;;9.20;4.70;;;18.40;97.30;;;;;;4998178;28;20189;-86
2021/07/07 04:41:10;;;;;;;11.03;3.97;;;18.30;97.30;;;;;;4993987;28;20182;-85
2021/07/07 04:43:35;;;;;;;9.80;3.30;;;18.30;97.30;;;;;;4994435;28;20202;-86
2021/07/07 04:46:01;;;;;;;7.33;3.87;;;18.30;97.30;;;;;;4993583;28;20332;-87
2021/07/07 04:48:26;;;;;;;4.13;2.97;;;18.30;97.30;;;;;;4992663;28;20174;-85
2021/07/07 04:50:52;;;;;;;5.63;3.30;;;18.30;97.30;;;;;;5007700;28;20230;-85
2021/07/07 04:53:17;;;;;;;8.13;3.43;;;18.30;97.30;;;;;;5000839;28;20303;-85
2021/07/07 04:55:45;;;;;;;9.83;3.63;;;18.30;97.30;;;;;;4997786;28;20177;-86
2021/07/07 04:58:10;;;;;;;5.23;3.63;;;18.40;97.30;;;;;;4997590;28;20184;-85
2021/07/07 05:00:36;;;;;;;5.87;2.90;;;18.40;97.30;;;;;;4988406;28;20455;-85
2021/07/07 05:03:10;;;;;;;6.33;3.00;;;18.50;97.30;;;;;;5001126;28;20201;-85
2021/07/07 05:05:39;;;;;;;6.77;3.20;;;18.60;97.30;;;;;;5000600;28;20228;-88
2021/07/07 05:08:07;;;;;;;4.63;3.20;;;18.60;97.30;;;;;;5006809;28;20929;-85
2021/07/07 05:10:39;;;;;;;17.10;8.23;;;18.60;97.30;;;;;;5007020;28;20427;-82
2021/07/07 05:13:08;;;;;;;64.57;32.10;;;18.70;97.30;;;;;;5007732;28;20438;-84
2021/07/07 05:15:41;;;;;;;730.90;341.50;;;18.60;97.30;;;;;;5013985;28;20426;-85
2021/07/07 05:18:07;;;;;;;20.30;10.40;;;18.70;97.30;;;;;;5009599;28;20404;-86
2021/07/07 05:20:41;;;;;;;535.93;238.17;;;18.70;97.30;;;;;;5005174;28;20418;-85
2021/07/07 05:23:09;;;;;;;352.60;156.13;;;18.60;97.30;;;;;;5006542;28;20196;-86
2021/07/07 05:25:39;;;;;;;446.10;193.50;;;18.60;97.30;;;;;;5011426;28;20598;-86
2021/07/07 05:28:08;;;;;;;350.80;150.13;;;18.70;97.30;;;;;;5006903;28;20827;-86
2021/07/07 05:30:35;;;;;;;29.53;10.43;;;18.70;97.30;;;;;;5005582;28;20416;-86
2021/07/07 05:33:01;;;;;;;8.83;3.00;;;18.70;97.30;;;;;;5010783;28;20439;-87
2021/07/07 05:35:27;;;;;;;207.43;85.00;;;18.60;97.30;;;;;;4999361;28;20945;-86
2021/07/07 05:37:53;;;;;;;14.07;6.37;;;18.50;97.30;;;;;;5002316;28;20487;-86
2021/07/07 05:40:20;;;;;;;119.63;48.03;;;18.40;97.30;;;;;;5000984;28;20511;-86
2021/07/07 05:42:52;;;;;;;48.53;18.23;;;18.40;97.30;;;;;;5006950;28;20595;-86
2021/07/07 05:45:21;;;;;;;42.93;17.73;;;18.40;97.30;;;;;;4997083;28;20458;-86
2021/07/07 05:47:48;;;;;;;80.53;29.57;;;18.40;97.30;;;;;;5005880;28;20834;-85
2021/07/07 05:50:14;;;;;;;5.03;3.10;;;18.50;97.30;;;;;;5009283;28;20415;-86
2021/07/07 05:52:40;;;;;;;54.73;24.60;;;18.50;97.30;;;;;;5001231;28;20448;-86
2021/07/07 05:55:06;;;;;;;71.07;29.03;;;18.40;97.30;;;;;;4975772;28;20959;-86
2021/07/07 05:57:37;;;;;;;16.77;6.97;;;18.50;97.30;;;;;;4981133;28;20185;-86
2021/07/07 06:00:24;;;;;;;45.87;20.80;;;18.50;97.30;;;;;;4994157;28;21029;-86
2021/07/07 06:02:52;;;;;;;5.87;3.30;;;18.50;97.30;;;;;;4994645;28;20494;-85
2021/07/07 06:05:21;;;;;;;5.93;2.80;;;18.50;97.30;;;;;;4994753;28;20888;-86
2021/07/07 06:07:51;;;;;;;28.50;11.97;;;18.50;97.30;;;;;;4995022;28;20471;-86
2021/07/07 06:10:22;;;;;;;19.53;9.53;;;18.40;97.30;;;;;;4996709;28;20446;-86
2021/07/07 06:12:48;;;;;;;20.20;8.07;;;18.40;97.30;;;;;;4998701;28;20571;-85
2021/07/07 06:15:17;;;;;;;4.53;2.70;;;18.40;97.30;;;;;;4996183;28;20493;-85
2021/07/07 06:17:43;;;;;;;3.63;2.57;;;18.30;97.30;;;;;;4995453;28;20678;-85
2021/07/07 06:20:11;;;;;;;6.20;3.40;;;18.30;97.30;;;;;;4995358;28;20998;-85
2021/07/07 06:22:38;;;;;;;10.60;4.50;;;18.10;97.30;;;;;;4995214;28;20847;-86
2021/07/07 06:25:05;;;;;;;7.13;2.93;;;18.20;97.30;;;;;;4994570;28;20460;-86
2021/07/07 06:27:30;;;;;;;10.90;3.77;;;18.20;97.30;;;;;;4995069;28;20431;-86
2021/07/07 06:29:56;;;;;;;8.20;3.20;;;18.20;97.30;;;;;;4996636;28;20420;-86
2021/07/07 06:32:21;;;;;;;8.03;3.60;;;18.20;97.30;;;;;;4996117;28;20197;-86
2021/07/07 06:34:47;;;;;;;7.20;3.70;;;18.20;97.30;;;;;;4996544;28;20180;-86
2021/07/07 06:37:12;;;;;;;7.00;2.70;;;18.20;97.30;;;;;;4996963;28;20176;-86
2021/07/07 06:39:38;;;;;;;8.13;3.27;;;18.30;97.30;;;;;;4996526;28;20177;-86
2021/07/07 06:42:05;;;;;;;11.87;2.93;;;18.30;97.30;;;;;;4996844;28;20556;-86
2021/07/07 06:44:31;;;;;;;8.87;3.10;;;18.40;97.30;;;;;;4998140;28;20175;-86
2021/07/07 06:46:56;;;;;;;9.23;2.97;;;18.20;97.30;;;;;;4998907;28;20542;-86
2021/07/07 06:49:22;;;;;;;9.27;3.30;;;18.10;97.30;;;;;;5017913;28;20431;-86
2021/07/07 06:51:49;;;;;;;5.77;2.50;;;18.00;97.30;;;;;;4999806;28;20185;-86
2021/07/07 06:54:14;;;;;;;5.00;3.07;;;18.00;97.30;;;;;;4997231;28;20189;-86
2021/07/07 06:56:40;;;;;;;5.30;2.57;;;18.00;97.30;;;;;;4998285;28;20436;-87
2021/07/07 06:59:08;;;;;;;8.50;3.20;;;18.00;97.30;;;;;;4998018;28;20177;-86
2021/07/07 07:01:33;;;;;;;5.13;2.70;;;17.90;97.30;;;;;;4996399;28;20174;-86
2021/07/07 07:04:00;;;;;;;4.47;2.83;;;17.80;97.30;;;;;;4995054;28;20444;-86
2021/07/07 07:08:57;;;;;;;8.50;2.90;;;18.00;97.30;;;;;;5059091;22;20952;-86
2021/07/07 07:11:23;;;;;;;6.03;2.80;;;18.10;97.30;;;;;;5017221;28;20607;-85
2021/07/07 07:13:48;;;;;;;7.60;2.80;;;18.10;97.30;;;;;;5016350;28;20177;-85
2021/07/07 07:16:14;;;;;;;7.63;3.10;;;18.10;97.30;;;;;;5015510;28;20283;-86
2021/07/07 07:18:40;;;;;;;4.00;2.80;;;18.10;97.30;;;;;;5004926;28;20406;-86
2021/07/07 07:21:06;;;;;;;6.10;2.93;;;18.10;97.30;;;;;;4996988;28;20264;-85
2021/07/07 07:23:32;;;;;;;4.80;2.97;;;18.10;97.30;;;;;;4998047;28;20427;-86
2021/07/07 07:25:59;;;;;;;6.57;2.97;;;18.10;97.30;;;;;;5012624;28;20479;-86
2021/07/07 07:28:25;;;;;;;5.50;2.50;;;18.10;97.30;;;;;;5017276;28;20423;-86
2021/07/07 07:30:52;;;;;;;4.53;2.83;;;18.10;97.30;;;;;;5016737;28;20458;-86
2021/07/07 07:33:17;;;;;;;4.60;2.43;;;18.10;97.30;;;;;;5011066;28;20436;-86
2021/07/07 07:35:43;;;;;;;4.73;3.20;;;18.20;97.30;;;;;;4997766;28;20511;-86
2021/07/07 07:38:14;;;;;;;4.23;3.23;;;18.20;97.30;;;;;;4997303;28;20265;-86
2021/07/07 07:40:41;;;;;;;5.33;3.03;;;18.10;97.30;;;;;;4995893;28;20204;-86
2021/07/07 07:43:10;;;;;;;8.23;2.77;;;18.10;97.30;;;;;;4995425;28;20463;-86
2021/07/07 07:45:37;;;;;;;8.07;2.90;;;18.00;97.30;;;;;;4995806;28;20456;-86
2021/07/07 07:48:03;;;;;;;3.20;2.70;;;18.00;97.30;;;;;;5006451;28;20419;-86
2021/07/07 07:50:29;;;;;;;4.83;2.80;;;17.80;97.30;;;;;;5015630;28;20426;-86
2021/07/07 07:52:55;;;;;;;7.57;3.27;;;17.80;97.30;;;;;;5014694;28;20798;-86
2021/07/07 07:55:22;;;;;;;5.90;3.10;;;17.80;97.30;;;;;;5014944;28;20473;-86
2021/07/07 07:57:49;;;;;;;10.50;3.10;;;17.80;97.30;;;;;;5016335;28;20210;-86
2021/07/07 08:00:18;;;;;;;6.80;3.20;;;17.80;97.30;;;;;;5015861;28;20454;-86
2021/07/07 08:02:44;;;;;;;4.57;2.83;;;17.80;97.30;;;;;;5032291;28;20407;-86
2021/07/07 08:05:11;;;;;;;5.13;2.80;;;17.90;97.30;;;;;;5014198;28;20457;-86
2021/07/07 08:07:38;;;;;;;6.70;3.30;;;17.90;97.30;;;;;;5014841;28;20480;-86
2021/07/07 08:10:05;;;;;;;5.37;2.87;;;18.00;97.30;;;;;;5002461;28;20427;-86
2021/07/07 08:12:30;;;;;;;4.27;2.60;;;18.00;97.30;;;;;;5020205;28;20456;-86
2021/07/07 08:14:56;;;;;;;3.93;2.67;;;18.10;97.30;;;;;;4995717;28;20415;-86
2021/07/07 08:17:22;;;;;;;4.73;3.03;;;18.20;97.30;;;;;;4996438;28;20177;-86
2021/07/07 08:19:48;;;;;;;4.73;2.80;;;18.40;97.30;;;;;;4996978;28;20664;-87
2021/07/07 08:22:16;;;;;;;5.17;2.70;;;18.50;97.30;;;;;;5001182;28;20439;-87
2021/07/07 08:24:41;;;;;;;5.13;2.80;;;18.50;97.30;;;;;;5004596;28;20466;-86
2021/07/07 08:27:08;;;;;;;9.83;3.00;;;18.60;97.30;;;;;;5014263;28;20499;-87
2021/07/07 08:29:35;;;;;;;11.00;2.93;;;18.60;97.30;;;;;;4995500;28;20229;-85
2021/07/07 08:32:02;;;;;;;5.10;2.77;;;18.60;97.30;;;;;;4995506;28;20460;-87
2021/07/07 08:34:28;;;;;;;5.27;3.43;;;18.70;97.30;;;;;;5009041;28;20451;-86
2021/07/07 08:36:53;;;;;;;5.43;3.03;;;18.70;97.30;;;;;;5015114;28;20415;-87
2021/07/07 08:39:19;;;;;;;3.53;2.73;;;18.70;97.30;;;;;;5014939;28;20599;-87
2021/07/07 08:41:45;;;;;;;3.60;2.87;;;18.60;97.30;;;;;;5013121;28;20192;-86
2021/07/07 08:44:10;;;;;;;10.10;3.10;;;18.60;97.30;;;;;;5012783;28;20211;-86
2021/07/07 08:46:36;;;;;;;4.33;3.30;;;18.50;97.30;;;;;;5001514;28;20205;-87
2021/07/07 08:49:03;;;;;;;6.57;3.33;;;18.50;97.30;;;;;;4994967;28;20181;-86
2021/07/07 08:51:30;;;;;;;7.47;3.13;;;18.50;97.30;;;;;;4994120;28;20479;-86
2021/07/07 08:53:56;;;;;;;10.27;3.97;;;18.40;97.30;;;;;;4998384;28;20435;-87
2021/07/07 08:56:21;;;;;;;3.50;2.87;;;18.40;97.30;;;;;;4995817;28;20427;-86
2021/07/07 08:58:47;;;;;;;6.37;4.00;;;18.30;97.30;;;;;;5005210;28;20892;-86
2021/07/07 09:01:12;;;;;;;5.87;3.07;;;18.40;97.30;;;;;;5001617;28;20232;-87
2021/07/07 09:03:43;;;;;;;5.80;3.50;;;18.50;97.30;;;;;;5008477;28;20187;-86
2021/07/07 09:06:08;;;;;;;4.93;2.90;;;18.60;97.30;;;;;;5008294;28;20200;-86
2021/07/07 09:08:36;;;;;;;3.53;2.77;;;18.70;97.30;;;;;;5011496;28;20456;-86
2021/07/07 09:11:19;;;;;;;6.00;3.13;;;18.60;97.30;;;;;;4998223;28;20264;-85
2021/07/07 09:14:04;;;;;;;5.20;3.00;;;18.60;97.30;;;;;;5008578;28;20999;-86
2021/07/07 09:16:47;;;;;;;5.90;3.30;;;18.40;97.30;;;;;;5014518;28;20442;-86
2021/07/07 09:19:17;;;;;;;10.00;3.20;;;18.50;97.30;;;;;;5012946;28;20419;-86
2021/07/07 09:21:52;;;;;;;5.10;3.30;;;18.60;97.30;;;;;;5033389;28;20459;-86
2021/07/07 09:24:21;;;;;;;3.97;3.40;;;18.70;97.30;;;;;;5016799;28;20429;-85
2021/07/07 09:27:01;;;;;;;4.20;3.67;;;18.80;97.30;;;;;;5004800;28;20792;-86
2021/07/07 09:29:46;;;;;;;6.80;3.60;;;19.00;97.30;;;;;;4995775;28;20907;-86
2021/07/07 09:32:21;;;;;;;4.70;2.80;;;19.10;97.30;;;;;;4996885;28;20448;-85
2021/07/07 09:34:51;;;;;;;5.30;3.80;;;19.10;97.30;;;;;;4996863;28;20923;-86
2021/07/07 09:37:24;;;;;;;4.83;3.10;;;19.20;97.30;;;;;;4994292;28;20427;-86
2021/07/07 09:39:50;;;;;;;3.63;2.73;;;19.30;97.30;;;;;;4994952;28;20416;-86
2021/07/07 09:42:30;;;;;;;4.37;3.53;;;19.30;97.30;;;;;;4995459;28;20471;-86
2021/07/07 09:44:58;;;;;;;4.13;3.40;;;19.40;97.30;;;;;;4996531;28;20449;-85
2021/07/07 09:47:25;;;;;;;4.37;3.57;;;19.40;97.30;;;;;;5001576;28;20415;-86
2021/07/07 09:49:50;;;;;;;7.73;2.67;;;19.50;97.30;;;;;;5035531;28;20443;-86
2021/07/07 09:52:24;;;;;;;5.90;2.93;;;19.50;97.30;;;;;;5018282;28;20462;-86
2021/07/07 09:54:50;;;;;;;4.60;3.10;;;19.50;97.30;;;;;;5003554;28;20181;-85
2021/07/07 09:57:17;;;;;;;6.70;2.80;;;19.50;97.30;;;;;;5000008;28;20473;-85
2021/07/07 09:59:43;;;;;;;5.07;2.30;;;19.60;97.30;;;;;;5003861;28;20416;-86
2021/07/07 10:02:09;;;;;;;3.83;2.80;;;19.70;97.30;;;;;;4999059;28;20993;-85
2021/07/07 10:04:38;;;;;;;4.40;2.63;;;19.80;97.30;;;;;;4998291;28;20280;-86
2021/07/07 10:07:05;;;;;;;4.37;3.07;;;19.80;97.30;;;;;;4995789;28;20466;-86
2021/07/07 10:09:33;;;;;;;3.80;2.80;;;19.80;97.30;;;;;;5016782;28;20422;-86
2021/07/07 10:12:00;;;;;;;3.77;3.10;;;19.80;97.30;;;;;;5016697;28;20439;-85
2021/07/07 10:14:28;;;;;;;4.63;2.80;;;19.80;97.30;;;;;;5017662;28;20442;-85
2021/07/07 10:16:53;;;;;;;5.07;2.63;;;19.90;97.30;;;;;;5017289;28;20426;-86
2021/07/07 10:19:20;;;;;;;2.60;2.40;;;20.00;97.30;;;;;;5016831;28;20407;-86
2021/07/07 10:21:46;;;;;;;4.57;2.37;;;20.10;97.30;;;;;;5034469;28;20192;-85
2021/07/07 10:24:14;;;;;;;5.97;3.13;;;20.20;97.30;;;;;;5010874;28;20511;-86
2021/07/07 10:26:40;;;;;;;3.83;2.53;;;20.30;97.30;;;;;;4997575;28;20207;-86
2021/07/07 10:29:06;;;;;;;4.03;2.43;;;20.40;97.30;;;;;;4996750;28;20409;-86
2021/07/07 10:31:56;;;;;;;5.10;2.97;;;20.40;97.30;;;;;;5015281;28;20486;-86
2021/07/07 10:34:25;;;;;;;5.50;3.10;;;20.40;97.30;;;;;;4997909;28;20419;-86
2021/07/07 10:36:52;;;;;;;3.80;3.37;;;20.40;97.30;;;;;;4996901;28;20420;-86
2021/07/07 10:39:18;;;;;;;5.30;3.30;;;20.50;97.30;;;;;;4996487;28;20511;-86
2021/07/07 10:41:45;;;;;;;5.23;3.50;;;20.70;97.30;;;;;;4997302;28;20496;-86
2021/07/07 10:44:22;;;;;;;3.10;2.40;;;20.80;97.30;;;;;;4997945;28;20566;-86
2021/07/07 10:47:01;;;;;;;4.23;3.30;;;21.10;97.30;;;;;;4996962;28;20463;-86
2021/07/07 10:49:27;;;;;;;4.30;3.33;;;21.20;97.30;;;;;;5004713;28;20466;-86
2021/07/07 10:51:58;;;;;;;6.53;3.47;;;21.20;97.30;;;;;;5026799;28;20442;-85
2021/07/07 10:54:32;;;;;;;5.90;2.53;;;21.20;97.30;;;;;;5016784;28;20442;-85
2021/07/07 10:57:00;;;;;;;3.33;2.63;;;21.30;97.30;;;;;;5016274;28;20423;-85
2021/07/07 10:59:42;;;;;;;4.43;2.30;;;21.30;97.30;;;;;;5015658;28;20614;-86
2021/07/07 11:02:25;;;;;;;3.87;2.90;;;21.30;97.30;;;;;;5017125;28;20443;-86
2021/07/07 11:04:58;;;;;;;3.67;2.37;;;21.30;97.30;;;;;;5017206;28;20526;-86
2021/07/07 11:07:37;;;;;;;3.10;2.60;;;21.40;97.30;;;;;;4996418;28;20464;-85
2021/07/07 11:10:13;;;;;;;4.47;2.77;;;21.40;97.30;;;;;;4997234;28;20427;-86
2021/07/07 11:12:42;;;;;;;2.77;2.47;;;21.50;97.30;;;;;;4997798;28;20780;-86
2021/07/07 11:15:10;;;;;;;4.50;2.37;;;21.50;97.30;;;;;;4996339;28;20419;-86
2021/07/07 11:17:38;;;;;;;3.60;2.63;;;21.50;97.30;;;;;;4995652;28;20458;-86
2021/07/07 11:20:22;;;;;;;5.33;2.90;;;21.60;97.30;;;;;;4996641;28;20420;-85
2021/07/07 11:22:58;;;;;;;6.33;2.50;;;21.60;97.30;;;;;;4996411;28;20416;-85
2021/07/07 11:25:26;;;;;;;7.43;2.77;;;21.60;97.30;;;;;;5009690;28;20466;-85
2021/07/07 11:27:52;;;;;;;4.67;2.67;;;21.60;97.30;;;;;;4995491;28;20416;-85
2021/07/07 11:30:19;;;;;;;3.10;2.20;;;21.70;97.30;;;;;;5013359;28;20446;-85
2021/07/07 11:32:49;;;;;;;2.20;2.00;;;21.80;97.30;;;;;;4997164;28;20445;-84
2021/07/07 11:35:39;;;;;;;7.07;2.60;;;21.70;97.30;;;;;;4995468;28;20424;-85
2021/07/07 11:41:29;;;;;;;3.03;2.13;;;21.80;97.30;;;;;;5031897;28;20594;-85
2021/07/07 11:43:54;;;;;;;5.30;2.37;;;21.80;97.30;;;;;;5015226;28;20465;-85
2021/07/07 11:46:20;;;;;;;3.27;2.30;;;21.80;97.30;;;;;;5014785;28;20486;-85
2021/07/07 11:48:47;;;;;;;4.63;2.60;;;21.90;97.30;;;;;;5015258;28;20275;-84
2021/07/07 11:51:19;;;;;;;6.30;2.33;;;22.00;97.30;;;;;;5016462;28;20201;-85
2021/07/07 11:53:50;;;;;;;4.20;2.40;;;22.10;97.30;;;;;;5034405;28;20417;-85
2021/07/07 11:56:21;;;;;;;3.83;2.20;;;22.20;97.30;;;;;;5035128;28;20418;-85
2021/07/07 11:58:48;;;;;;;3.60;2.30;;;22.30;97.30;;;;;;5052318;28;20476;-85
2021/07/07 12:01:18;;;;;;;3.17;2.00;;;22.40;97.30;;;;;;5034576;28;20707;-85
2021/07/07 12:04:02;;;;;;;2.20;2.00;;;22.60;97.30;;;;;;5034659;28;20454;-85
2021/07/07 12:06:33;;;;;;;3.90;2.50;;;22.70;97.30;;;;;;5025884;28;20455;-85
2021/07/07 12:09:03;;;;;;;2.10;1.90;;;22.80;97.30;;;;;;5014626;28;20479;-85
2021/07/07 12:11:29;;;;;;;4.67;2.50;;;22.90;97.30;;;;;;5014427;28;20443;-85
2021/07/07 12:14:00;;;;;;;5.13;1.93;;;22.90;97.30;;;;;;5015309;28;20476;-85
2021/07/07 12:16:40;;;;;;;3.23;2.83;;;22.90;97.30;;;;;;5015063;28;20506;-85
2021/07/07 12:19:10;;;;;;;3.73;2.23;;;22.90;97.30;;;;;;5014144;28;20470;-85
2021/07/07 12:21:38;;;;;;;2.50;2.30;;;22.90;97.30;;;;;;5014177;28;20451;-85
2021/07/07 12:24:07;;;;;;;6.03;2.60;;;22.90;97.30;;;;;;5009681;28;20935;-85
2021/07/07 12:26:36;;;;;;;3.90;2.80;;;22.80;97.30;;;;;;4995094;28;20506;-85
2021/07/07 12:29:03;;;;;;;5.33;2.50;;;22.90;97.30;;;;;;4994307;28;20427;-85
2021/07/07 12:31:36;;;;;;;2.73;2.57;;;22.80;97.30;;;;;;4994584;28;20499;-84
2021/07/07 12:34:07;;;;;;;5.30;2.00;;;22.70;97.30;;;;;;4996037;28;20415;-84
2021/07/07 12:36:35;;;;;;;3.10;2.50;;;22.70;97.30;;;;;;4995025;28;20408;-84
2021/07/07 12:39:14;;;;;;;4.47;3.13;;;22.70;97.30;;;;;;4993925;28;20929;-84
2021/07/07 12:41:43;;;;;;;2.83;2.40;;;22.70;97.30;;;;;;4994498;28;20443;-85
2021/07/07 12:44:12;;;;;;;25.77;7.80;;;22.60;97.30;;;;;;4995662;28;20462;-85
2021/07/07 12:46:57;;;;;;;2.77;2.60;;;22.50;97.30;;;;;;5012312;28;20459;-85
2021/07/07 12:49:41;;;;;;;18.20;7.00;;;22.40;97.30;;;;;;5008776;28;20434;-84
2021/07/07 12:52:26;;;;;;;3.63;2.60;;;22.50;97.30;;;;;;5013916;28;20477;-84
2021/07/07 12:55:09;;;;;;;4.00;2.80;;;22.50;97.30;;;;;;5013597;28;20469;-85
2021/07/07 12:57:54;;;;;;;18.13;8.13;;;22.60;97.30;;;;;;5014991;28;20407;-84